Time;durP1;ratioP1;P1;durP2;ratioP2;P2;SDS_P1;SDS_P2;PMS_P1;PMS_P2;Temp;Humidity;BMP_temperature;BMP_pressure;BME280_temperature;BME280_humidity;BME280_pressure;Samples;Min_cycle;Max_cycle;Signal;HPM_P1;HPM_P2
2022/10/01 00:00:59;;;;;;;5.10;2.00;;;;;;;13.38;100.00;97883.20;1796875;78;20881;-57
2022/10/01 00:03:27;;;;;;;3.52;2.47;;;;;;;13.36;100.00;97893.49;1799969;79;20849;-57
2022/10/01 00:06:04;;;;;;;3.12;2.22;;;;;;;13.34;100.00;97887.63;1789381;79;20888;-57
2022/10/01 00:08:32;;;;;;;4.90;2.10;;;;;;;13.31;100.00;97896.31;1804829;79;21237;-57
2022/10/01 00:11:00;;;;;;;3.80;1.90;;;;;;;13.30;100.00;97892.05;1807405;77;20935;-57
2022/10/01 00:13:33;;;;;;;5.42;1.82;;;;;;;13.31;100.00;97892.82;1801250;79;21027;-58
2022/10/01 00:15:59;;;;;;;2.83;2.12;;;;;;;13.30;100.00;97896.09;1807442;79;20872;-57
2022/10/01 00:18:28;;;;;;;3.33;2.08;;;;;;;13.31;100.00;97894.16;1811432;79;20836;-57
2022/10/01 00:20:55;;;;;;;3.30;2.40;;;;;;;13.31;100.00;97890.93;1793017;79;21095;-57
2022/10/01 00:23:21;;;;;;;4.00;2.20;;;;;;;13.29;100.00;97893.69;1797972;79;20980;-57
2022/10/01 00:25:51;;;;;;;2.92;2.27;;;;;;;13.22;100.00;97900.86;1805390;79;21523;-57
2022/10/01 00:28:17;;;;;;;3.15;2.17;;;;;;;13.18;100.00;97906.63;1802015;79;20925;-57
2022/10/01 00:30:47;;;;;;;5.05;2.45;;;;;;;13.16;100.00;97904.80;1798013;79;21549;-57
2022/10/01 00:33:14;;;;;;;3.25;2.70;;;;;;;13.15;100.00;97893.78;1813759;79;21211;-57
2022/10/01 00:35:40;;;;;;;6.92;2.40;;;;;;;13.17;100.00;97886.74;1808274;79;20875;-57
2022/10/01 00:38:07;;;;;;;4.20;2.20;;;;;;;13.16;100.00;97895.39;1805467;79;21452;-57
2022/10/01 00:40:34;;;;;;;3.33;2.00;;;;;;;13.16;100.00;97902.11;1805989;79;20893;-57
2022/10/01 00:43:00;;;;;;;4.60;2.10;;;;;;;13.16;100.00;97903.45;1803204;79;21079;-58
2022/10/01 01:08:56;;;;;;;9.75;2.40;;;;;;;12.92;100.00;97901.61;1774356;79;21375;-57
2022/10/01 01:11:53;;;;;;;2.90;2.60;;;;;;;12.87;100.00;97897.70;1802794;79;21902;-57
2022/10/01 01:14:29;;;;;;;5.72;2.90;;;;;;;12.83;100.00;97894.05;1750977;79;21012;-57
2022/10/01 01:17:00;;;;;;;5.08;2.25;;;;;;;12.81;100.00;97893.56;1727103;79;20923;-57
2022/10/01 01:19:32;;;;;;;5.42;2.58;;;;;;;12.77;100.00;97896.06;1797511;79;20936;-58
2022/10/01 01:22:02;;;;;;;3.75;2.75;;;;;;;12.75;100.00;97892.09;1808760;79;21014;-58
2022/10/01 01:24:58;;;;;;;8.45;3.02;;;;;;;12.72;100.00;97894.03;1796350;79;21451;-57
2022/10/01 01:28:08;;;;;;;4.87;3.05;;;;;;;12.70;100.00;97893.01;1802700;79;20983;-58
2022/10/01 01:30:37;;;;;;;4.72;3.20;;;;;;;12.71;100.00;97895.16;1805522;77;20841;-56
2022/10/01 01:33:10;;;;;;;3.60;3.00;;;;;;;12.69;100.00;97905.42;1775478;79;20877;-57
2022/10/01 01:35:50;;;;;;;3.25;2.95;;;;;;;12.65;100.00;97900.39;1799956;79;21067;-57
2022/10/01 01:38:23;;;;;;;3.52;2.98;;;;;;;12.65;100.00;97900.39;1809858;79;21198;-58
2022/10/01 01:40:50;;;;;;;6.97;3.17;;;;;;;12.64;100.00;97906.88;1796491;79;20980;-58
2022/10/01 01:43:21;;;;;;;3.95;3.47;;;;;;;12.67;100.00;97907.63;1771774;79;20855;-58
2022/10/01 01:45:49;;;;;;;4.92;3.22;;;;;;;12.67;100.00;97904.94;1805228;79;21489;-57
2022/10/01 01:48:16;;;;;;;5.25;3.33;;;;;;;12.67;100.00;97912.99;1792682;79;21419;-58
2022/10/01 01:50:51;;;;;;;6.75;3.30;;;;;;;12.65;100.00;97912.48;1796467;79;21223;-58
2022/10/01 01:53:19;;;;;;;3.62;3.22;;;;;;;12.65;100.00;97910.59;1812439;79;20872;-58
2022/10/01 01:55:48;;;;;;;4.50;3.35;;;;;;;12.64;100.00;97912.25;1801361;79;20935;-58
2022/10/01 01:58:16;;;;;;;6.08;3.42;;;;;;;12.63;100.00;97911.45;1798169;79;20936;-58
2022/10/01 02:00:43;;;;;;;3.92;3.12;;;;;;;12.61;100.00;97916.88;1795610;79;20966;-58
2022/10/01 02:03:10;;;;;;;3.70;2.95;;;;;;;12.59;100.00;97902.96;1807730;79;21166;-58
2022/10/01 02:05:44;;;;;;;3.65;3.08;;;;;;;12.58;100.00;97904.05;1805245;79;20967;-58
2022/10/01 02:08:27;;;;;;;4.45;3.25;;;;;;;12.58;100.00;97909.42;1807212;79;21363;-58
2022/10/01 02:11:02;;;;;;;4.55;4.15;;;;;;;12.55;100.00;97906.02;1806507;79;20923;-57
2022/10/01 02:13:37;;;;;;;6.12;3.80;;;;;;;12.55;100.00;97914.09;1806861;79;21439;-56
2022/10/01 02:16:17;;;;;;;6.87;3.42;;;;;;;12.56;100.00;97907.59;1794392;79;21227;-57
2022/10/01 02:19:02;;;;;;;4.28;3.55;;;;;;;12.56;100.00;97901.68;1803964;78;20862;-57
2022/10/01 02:21:40;;;;;;;5.20;3.87;;;;;;;12.56;100.00;97915.66;1792930;79;20928;-58
2022/10/01 02:24:24;;;;;;;5.50;3.45;;;;;;;12.58;100.00;97910.77;1810238;79;21277;-57
2022/10/01 02:26:51;;;;;;;5.67;3.45;;;;;;;12.56;100.00;97917.80;1809344;79;21513;-58
2022/10/01 02:29:18;;;;;;;4.37;3.30;;;;;;;12.61;100.00;97908.83;1808516;79;21181;-58
2022/10/01 02:31:46;;;;;;;4.58;3.70;;;;;;;12.62;100.00;97908.53;1797908;79;20949;-58
2022/10/01 02:34:14;;;;;;;4.10;3.60;;;;;;;12.65;100.00;97921.34;1805454;79;20912;-58
2022/10/01 02:36:41;;;;;;;7.50;3.58;;;;;;;12.66;100.00;97923.48;1800525;77;20924;-58
2022/10/01 02:39:07;;;;;;;5.15;3.90;;;;;;;12.66;100.00;97922.14;1814544;79;21505;-57
2022/10/01 02:41:36;;;;;;;4.90;3.70;;;;;;;12.65;100.00;97915.16;1801214;79;22076;-57
2022/10/01 02:44:10;;;;;;;4.53;3.55;;;;;;;12.62;100.00;97907.73;1797053;79;21372;-58
2022/10/01 02:46:54;;;;;;;7.10;3.42;;;;;;;12.60;100.00;97900.53;1803957;79;21394;-57
2022/10/01 02:49:21;;;;;;;4.37;3.98;;;;;;;12.56;100.00;97898.19;1800794;79;21443;-59
2022/10/01 02:52:08;;;;;;;5.20;3.33;;;;;;;12.52;100.00;97905.28;1806612;79;20982;-59
2022/10/01 02:54:57;;;;;;;5.20;3.40;;;;;;;12.46;100.00;97901.91;1809637;78;21030;-57
2022/10/01 02:57:25;;;;;;;5.45;3.75;;;;;;;12.43;100.00;97893.67;1802224;79;21378;-57
2022/10/01 02:59:59;;;;;;;4.55;3.35;;;;;;;12.38;100.00;97894.59;1809993;79;21450;-57
2022/10/01 03:02:27;;;;;;;5.05;3.67;;;;;;;12.32;100.00;97905.98;1802296;79;21156;-57
2022/10/01 03:04:58;;;;;;;4.72;3.30;;;;;;;12.23;100.00;97913.17;1809970;79;21014;-58
2022/10/01 03:07:26;;;;;;;6.40;3.80;;;;;;;12.16;100.00;97922.20;1813935;79;22081;-57
2022/10/01 03:09:52;;;;;;;5.90;3.45;;;;;;;12.12;100.00;97920.41;1795644;79;20880;-57
2022/10/01 03:12:19;;;;;;;4.95;3.15;;;;;;;12.04;100.00;97920.57;1796025;79;20963;-57
2022/10/01 03:14:46;;;;;;;5.25;3.33;;;;;;;11.97;100.00;97928.23;1795978;79;20940;-57
2022/10/01 03:17:13;;;;;;;3.42;3.02;;;;;;;11.85;100.00;97923.13;1801636;79;20937;-57
2022/10/01 03:19:40;;;;;;;7.58;3.58;;;;;;;11.75;100.00;97921.47;1811447;79;21513;-57
2022/10/01 03:22:08;;;;;;;5.03;3.30;;;;;;;11.69;100.00;97915.94;1809079;79;20853;-57
2022/10/01 03:24:35;;;;;;;5.90;3.00;;;;;;;11.63;100.00;97913.09;1799885;79;21355;-57
2022/10/01 03:27:02;;;;;;;6.40;3.33;;;;;;;11.61;100.00;97908.00;1805626;79;21097;-57
2022/10/01 03:29:28;;;;;;;4.85;3.42;;;;;;;11.60;100.00;97908.31;1799586;79;20976;-57
2022/10/01 03:31:55;;;;;;;4.55;3.30;;;;;;;11.61;100.00;97905.89;1794626;78;21202;-57
2022/10/01 03:34:22;;;;;;;8.75;3.72;;;;;;;11.62;100.00;97902.09;1808844;78;21537;-57
2022/10/01 03:36:51;;;;;;;4.15;3.05;;;;;;;11.59;100.00;97900.00;1799932;79;20928;-57
2022/10/01 03:39:18;;;;;;;4.37;3.37;;;;;;;11.56;100.00;97894.69;1790701;79;20893;-57
2022/10/01 03:41:45;;;;;;;5.72;3.27;;;;;;;11.53;100.00;97892.63;1806126;79;20932;-57
2022/10/01 03:44:12;;;;;;;3.90;3.02;;;;;;;11.53;100.00;97891.81;1805605;79;21126;-57
2022/10/01 03:46:39;;;;;;;6.40;3.75;;;;;;;11.52;100.00;97887.53;1807570;79;20936;-57
2022/10/01 03:49:06;;;;;;;7.75;3.30;;;;;;;11.45;100.00;97887.14;1790516;79;20924;-57
2022/10/01 03:51:35;;;;;;;4.40;3.40;;;;;;;11.40;100.00;97896.08;1806666;79;21427;-57
2022/10/01 03:54:04;;;;;;;5.15;3.30;;;;;;;11.37;100.00;97898.58;1799653;79;20980;-57
2022/10/01 03:56:31;;;;;;;8.48;4.30;;;;;;;11.36;100.00;97897.77;1795209;79;21876;-57
2022/10/01 03:58:57;;;;;;;7.50;3.80;;;;;;;11.36;100.00;97894.29;1799266;79;20983;-57
2022/10/01 04:01:24;;;;;;;4.78;3.87;;;;;;;11.35;100.00;97880.65;1811444;79;21545;-58
2022/10/01 04:03:53;;;;;;;5.03;4.00;;;;;;;11.32;100.00;97882.04;1806901;78;20892;-58
2022/10/01 04:06:19;;;;;;;4.78;4.08;;;;;;;11.30;100.00;97880.74;1809336;79;20975;-57
2022/10/01 04:08:46;;;;;;;6.85;3.70;;;;;;;11.29;100.00;97888.52;1799880;79;21195;-58
2022/10/01 04:11:13;;;;;;;4.22;3.80;;;;;;;11.22;100.00;97878.20;1799665;79;20885;-57
2022/10/01 04:13:40;;;;;;;7.55;3.52;;;;;;;11.18;100.00;97870.51;1805921;79;21482;-58
2022/10/01 04:16:07;;;;;;;5.70;3.47;;;;;;;11.19;100.00;97875.33;1794045;79;21023;-58
2022/10/01 04:18:33;;;;;;;5.20;3.52;;;;;;;11.17;100.00;97872.92;1804432;79;20881;-57
2022/10/01 04:21:00;;;;;;;6.62;4.47;;;;;;;11.14;100.00;97870.06;1797828;79;21504;-57
2022/10/01 04:23:26;;;;;;;6.72;4.30;;;;;;;11.10;100.00;97880.56;1801318;79;21486;-57
2022/10/01 04:25:53;;;;;;;7.80;4.80;;;;;;;11.09;100.00;97883.55;1810552;79;20948;-58
2022/10/01 04:28:20;;;;;;;9.03;5.37;;;;;;;11.08;100.00;97891.33;1793973;79;21014;-57
2022/10/01 04:30:46;;;;;;;7.60;4.20;;;;;;;11.08;100.00;97888.64;1809165;79;20990;-57
2022/10/01 04:33:15;;;;;;;7.78;3.95;;;;;;;11.10;100.00;97886.46;1815390;79;21153;-58
2022/10/01 04:35:42;;;;;;;3.77;3.25;;;;;;;11.17;100.00;97889.55;1813917;77;21065;-58
2022/10/01 04:38:15;;;;;;;3.70;3.40;;;;;;;11.25;100.00;97894.23;1808661;79;21112;-58
2022/10/01 04:40:42;;;;;;;3.85;3.40;;;;;;;11.33;100.00;97896.25;1814624;79;21482;-58
2022/10/01 04:43:09;;;;;;;3.50;3.05;;;;;;;11.39;100.00;97893.70;1809172;79;20888;-58
2022/10/01 04:45:36;;;;;;;4.17;3.33;;;;;;;11.42;100.00;97888.52;1773939;79;21120;-58
2022/10/01 04:48:04;;;;;;;3.30;2.87;;;;;;;11.47;100.00;97887.66;1796675;79;20902;-58
2022/10/01 04:50:31;;;;;;;3.22;2.80;;;;;;;11.53;100.00;97887.80;1799887;79;21490;-58
2022/10/01 04:52:57;;;;;;;3.95;2.92;;;;;;;11.59;100.00;97879.88;1809135;79;20903;-57
2022/10/01 04:55:24;;;;;;;5.75;4.20;;;;;;;11.62;100.00;97884.12;1798549;79;20900;-58
2022/10/01 04:57:51;;;;;;;6.25;3.98;;;;;;;11.64;100.00;97887.30;1804538;79;21245;-57
2022/10/01 05:00:20;;;;;;;5.45;4.10;;;;;;;11.69;100.00;97891.79;1817503;77;20840;-57
2022/10/01 05:02:49;;;;;;;5.62;3.92;;;;;;;11.71;100.00;97896.30;1814946;77;21111;-57
2022/10/01 05:05:17;;;;;;;6.30;4.20;;;;;;;11.74;100.00;97902.42;1812476;77;21588;-57
2022/10/01 05:07:44;;;;;;;4.90;4.30;;;;;;;11.81;100.00;97904.16;1831023;77;20996;-57
2022/10/01 05:10:20;;;;;;;5.40;3.90;;;;;;;11.88;100.00;97896.50;1825500;77;21008;-57
2022/10/01 05:12:47;;;;;;;4.60;3.58;;;;;;;11.97;100.00;97897.37;1794824;79;20976;-55
2022/10/01 05:15:16;;;;;;;7.10;4.10;;;;;;;12.09;100.00;97897.65;1821985;77;20947;-57
2022/10/01 05:17:42;;;;;;;4.72;3.52;;;;;;;12.16;100.00;97904.74;1801160;78;20888;-57
2022/10/01 05:20:18;;;;;;;4.22;3.67;;;;;;;12.20;100.00;97900.34;1778516;78;20971;-57
2022/10/01 05:22:46;;;;;;;3.47;3.10;;;;;;;12.25;100.00;97900.23;1796492;77;21867;-57
2022/10/01 05:25:13;;;;;;;4.20;3.40;;;;;;;12.25;100.00;97901.58;1846478;77;21437;-58
2022/10/01 05:27:41;;;;;;;3.17;2.87;;;;;;;12.25;100.00;97909.64;1782313;80;21046;-57
2022/10/01 05:30:09;;;;;;;4.67;2.98;;;;;;;12.30;100.00;97920.27;1770824;79;21533;-57
2022/10/01 05:32:36;;;;;;;3.58;3.17;;;;;;;12.34;100.00;97919.91;1816835;79;21080;-56
2022/10/01 05:35:06;;;;;;;5.70;3.37;;;;;;;12.34;100.00;97918.56;1808185;77;21853;-57
2022/10/01 05:37:34;;;;;;;3.50;3.20;;;;;;;12.34;100.00;97913.77;1819032;76;21479;-56
2022/10/01 05:40:00;;;;;;;3.42;3.08;;;;;;;12.38;100.00;97914.73;1824982;76;20916;-58
2022/10/01 05:42:27;;;;;;;3.60;3.08;;;;;;;12.45;100.00;97917.00;1841489;77;20872;-58
2022/10/01 05:44:54;;;;;;;2.85;2.55;;;;;;;12.46;100.00;97921.28;1840310;77;21090;-57
2022/10/01 05:47:34;;;;;;;4.35;3.30;;;;;;;12.47;100.00;97919.63;1819554;77;21006;-57
2022/10/01 05:50:04;;;;;;;3.55;3.25;;;;;;;12.52;100.00;97924.89;1813769;77;21524;-57
2022/10/01 05:52:31;;;;;;;3.35;3.02;;;;;;;12.57;100.00;97923.97;1805186;76;20928;-57
2022/10/01 05:54:58;;;;;;;3.30;3.00;;;;;;;12.61;100.00;97921.71;1795539;79;20927;-57
2022/10/01 05:57:25;;;;;;;3.37;3.08;;;;;;;12.66;100.00;97922.14;1799189;77;20942;-56
2022/10/01 05:59:52;;;;;;;4.00;3.22;;;;;;;12.70;100.00;97923.11;1808458;77;21101;-56
2022/10/01 06:02:19;;;;;;;4.25;3.62;;;;;;;12.72;100.00;97919.56;1825116;77;21495;-56
2022/10/01 06:04:45;;;;;;;4.37;3.90;;;;;;;12.70;100.00;97917.19;1806887;79;20963;-57
2022/10/01 06:07:12;;;;;;;4.33;3.92;;;;;;;12.72;100.00;97920.91;1816151;77;21066;-57
2022/10/01 06:09:39;;;;;;;4.35;3.95;;;;;;;12.70;100.00;97923.11;1816913;77;20939;-56
2022/10/01 06:12:07;;;;;;;5.50;4.40;;;;;;;12.66;100.00;97917.56;1804112;77;21225;-56
2022/10/01 06:14:35;;;;;;;5.22;3.75;;;;;;;12.60;100.00;97922.80;1812135;77;20833;-58
2022/10/01 06:17:02;;;;;;;7.40;6.20;;;;;;;12.57;100.00;97924.77;1802784;77;21512;-56
2022/10/01 06:19:29;;;;;;;10.15;8.10;;;;;;;12.54;100.00;97919.20;1810235;78;21010;-56
2022/10/01 06:21:55;;;;;;;19.40;16.73;;;;;;;12.53;100.00;97927.03;1823506;77;20944;-56
2022/10/01 06:24:22;;;;;;;8.33;7.25;;;;;;;12.51;100.00;97930.00;1839189;77;21959;-57
2022/10/01 06:26:49;;;;;;;7.83;6.35;;;;;;;12.51;100.00;97928.66;1822686;77;20971;-57
2022/10/01 06:29:16;;;;;;;28.52;19.48;;;;;;;12.54;100.00;97935.31;1803894;79;21048;-58
2022/10/01 06:31:42;;;;;;;11.88;9.08;;;;;;;12.56;100.00;97933.92;1796053;79;21039;-57
2022/10/01 06:34:09;;;;;;;12.30;9.73;;;;;;;12.59;100.00;97929.83;1810018;77;21030;-57
2022/10/01 06:36:36;;;;;;;16.48;13.85;;;;;;;12.62;100.00;97932.72;1815473;79;22100;-56
2022/10/01 06:39:03;;;;;;;14.60;11.12;;;;;;;12.67;100.00;97923.74;1767955;81;20986;-57
2022/10/01 06:41:30;;;;;;;22.55;17.32;;;;;;;12.74;100.00;97926.80;1761533;80;20928;-58
2022/10/01 06:43:57;;;;;;;15.03;12.60;;;;;;;12.78;100.00;97935.83;1816219;79;21427;-56
2022/10/01 06:54:22;;;;;;;22.80;20.32;;;;;;;12.91;100.00;97944.38;1768419;80;24387;-56
2022/10/01 06:56:49;;;;;;;19.73;13.22;;;;;;;12.92;100.00;97945.42;1762522;80;21521;-58
2022/10/01 06:59:16;;;;;;;12.93;10.35;;;;;;;12.94;100.00;97948.59;1741053;81;20936;-57
2022/10/01 07:01:42;;;;;;;22.93;19.48;;;;;;;12.96;100.00;97947.73;1815671;77;21096;-57
2022/10/01 07:04:09;;;;;;;11.55;10.30;;;;;;;12.99;100.00;97947.68;1815271;79;21572;-57
2022/10/01 07:06:36;;;;;;;6.00;5.22;;;;;;;13.06;100.00;97952.10;1807868;79;20856;-56
2022/10/01 07:09:03;;;;;;;8.73;5.20;;;;;;;13.15;100.00;97954.84;1813493;79;20919;-56
2022/10/01 07:11:30;;;;;;;7.53;5.45;;;;;;;13.17;100.00;97949.94;1808967;79;21027;-57
2022/10/01 07:13:59;;;;;;;9.55;5.80;;;;;;;13.20;100.00;97951.48;1809580;79;21379;-57
2022/10/01 07:16:26;;;;;;;14.15;12.07;;;;;;;13.19;100.00;97957.17;1804007;79;20912;-58
2022/10/01 07:18:53;;;;;;;11.35;9.20;;;;;;;13.21;100.00;97954.42;1764666;79;20980;-57
2022/10/01 07:21:20;;;;;;;12.00;8.03;;;;;;;13.25;100.00;97958.08;1757630;80;20938;-56
2022/10/01 07:23:47;;;;;;;6.30;5.65;;;;;;;13.31;100.00;97957.38;1801368;79;20931;-56
2022/10/01 07:26:14;;;;;;;7.58;6.42;;;;;;;13.38;100.00;97959.08;1805638;77;21892;-56
2022/10/01 07:28:40;;;;;;;8.53;5.30;;;;;;;13.43;100.00;97955.72;1819449;77;20946;-56
2022/10/01 07:31:10;;;;;;;9.85;6.37;;;;;;;13.46;100.00;97957.80;1838975;77;21372;-57
2022/10/01 07:33:39;;;;;;;8.18;6.17;;;;;;;13.48;100.00;97958.82;1834850;77;20908;-57
2022/10/01 07:36:08;;;;;;;9.90;5.83;;;;;;;13.49;100.00;97958.53;1763510;81;20960;-57
2022/10/01 07:38:35;;;;;;;6.10;4.47;;;;;;;13.49;100.00;97957.19;1789913;79;21394;-55
2022/10/01 07:41:03;;;;;;;4.58;3.45;;;;;;;13.48;100.00;97950.20;1793884;79;21048;-57
2022/10/01 07:43:31;;;;;;;6.40;3.52;;;;;;;13.48;100.00;97950.20;1789670;79;21446;-57
2022/10/01 07:45:58;;;;;;;6.60;4.40;;;;;;;13.48;100.00;97947.52;1789532;79;20942;-57
2022/10/01 07:48:26;;;;;;;4.75;3.83;;;;;;;13.51;100.00;97946.91;1764423;80;20853;-57
2022/10/01 07:50:53;;;;;;;6.00;3.92;;;;;;;13.52;100.00;97944.44;1770908;80;21266;-58
2022/10/01 07:53:20;;;;;;;5.72;3.35;;;;;;;13.53;100.00;97937.16;1797785;79;20994;-57
2022/10/01 07:55:47;;;;;;;5.65;3.55;;;;;;;13.51;100.00;97933.99;1772009;79;21000;-57
2022/10/01 07:58:15;;;;;;;6.75;3.30;;;;;;;13.47;100.00;97945.91;1838533;77;20919;-57
2022/10/01 08:00:43;;;;;;;6.20;4.25;;;;;;;13.47;100.00;97940.53;1825288;77;20975;-56
2022/10/01 08:03:13;;;;;;;4.42;3.55;;;;;;;13.49;100.00;97938.35;1842205;77;21505;-56
2022/10/01 08:05:41;;;;;;;7.95;3.95;;;;;;;13.48;100.00;97925.19;1836248;76;21023;-57
2022/10/01 08:08:10;;;;;;;5.70;4.10;;;;;;;13.49;100.00;97928.13;1837161;77;20940;-60
2022/10/01 08:10:38;;;;;;;5.40;3.75;;;;;;;13.48;100.00;97921.95;1835776;76;37915;-57
2022/10/01 08:13:14;;;;;;;5.83;4.30;;;;;;;13.49;100.00;97927.59;1820386;76;21074;-56
2022/10/01 08:15:45;;;;;;;;;;;;;;;13.51;100.00;97932.11;1820393;78;21249;-60
2022/10/01 08:18:12;;;;;;;7.05;4.47;;;;;;;13.54;100.00;97930.12;1807947;77;20552;-56
2022/10/01 08:20:40;;;;;;;7.83;4.50;;;;;;;13.55;100.00;97928.23;1818578;77;21144;-56
2022/10/01 08:23:09;;;;;;;5.45;3.47;;;;;;;13.57;100.00;97922.78;1824072;78;20913;-57
2022/10/01 08:25:36;;;;;;;6.17;4.00;;;;;;;13.58;100.00;97919.54;1849129;77;20975;-57
2022/10/01 08:28:04;;;;;;;7.72;4.70;;;;;;;13.58;100.00;97920.34;1826379;78;21269;-57
2022/10/01 08:30:31;;;;;;;8.93;5.17;;;;;;;13.57;100.00;97910.66;1841212;77;21049;-57
2022/10/01 08:32:59;;;;;;;8.48;4.80;;;;;;;13.61;100.00;97911.63;1834037;77;21034;-57
2022/10/01 08:35:31;;;;;;;5.37;2.95;;;;;;;13.69;100.00;97904.69;1827125;77;21014;-57
2022/10/01 08:38:05;;;;;;;9.30;3.77;;;;;;;13.71;100.00;97897.89;1842526;77;21101;-58
2022/10/01 08:40:36;;;;;;;6.80;4.50;;;;;;;13.68;100.00;97893.12;1847743;77;21303;-58
2022/10/01 08:43:06;;;;;;;6.25;3.98;;;;;;;13.73;100.00;97891.41;1837759;77;20919;-57
2022/10/01 08:45:46;;;;;;;4.62;3.05;;;;;;;13.79;100.00;97886.11;1828560;77;20921;-56
2022/10/01 08:48:35;;;;;;;4.92;2.70;;;;;;;13.88;100.00;97882.88;1846716;76;20888;-57
2022/10/01 08:51:22;;;;;;;3.02;2.52;;;;;;;13.93;100.00;97878.70;1836172;77;21341;-57
2022/10/01 08:54:02;;;;;;;8.10;5.42;;;;;;;13.95;100.00;97888.60;1835963;77;21282;-57
2022/10/01 08:56:31;;;;;;;6.45;3.50;;;;;;;13.99;100.00;97886.89;1842779;77;20907;-56
2022/10/01 08:59:03;;;;;;;5.00;2.92;;;;;;;14.05;100.00;97881.03;1838798;77;20999;-56
2022/10/01 09:01:30;;;;;;;6.70;2.55;;;;;;;14.12;100.00;97875.17;1846469;77;21086;-56
2022/10/01 09:03:58;;;;;;;7.05;3.50;;;;;;;14.15;100.00;97873.20;1838879;77;21419;-57
2022/10/01 09:06:26;;;;;;;5.53;2.52;;;;;;;14.20;100.00;97871.70;1841448;77;21033;-56
2022/10/01 09:09:22;;;;;;;9.08;3.75;;;;;;;14.22;100.00;97874.87;1833561;77;21470;-56
2022/10/01 09:12:21;;;;;;;4.75;2.70;;;;;;;14.26;100.00;97875.27;1845455;77;20952;-56
2022/10/01 09:15:21;;;;;;;6.92;3.00;;;;;;;14.30;100.00;97876.79;1837014;77;20973;-56
2022/10/01 09:17:59;;;;;;;12.40;7.90;;;;;;;14.32;100.00;97874.02;1826884;77;21040;-57
2022/10/01 09:20:30;;;;;;;4.47;3.25;;;;;;;14.41;100.00;97877.28;1824130;77;21234;-57
2022/10/01 09:23:28;;;;;;;5.45;3.67;;;;;;;14.39;100.00;97874.34;1844803;77;20864;-56
2022/10/01 09:26:01;;;;;;;10.93;8.73;;;;;;;14.41;100.00;97866.50;1851197;77;20911;-56
2022/10/01 09:28:33;;;;;;;12.07;5.97;;;;;;;14.42;100.00;97867.52;1843810;77;21012;-56
2022/10/01 09:31:20;;;;;;;11.03;8.80;;;;;;;14.40;100.00;97868.40;1841364;77;21521;-56
2022/10/01 09:34:14;;;;;;;6.22;3.80;;;;;;;14.39;100.00;97867.60;1825991;77;20908;-56
2022/10/01 09:37:17;;;;;;;4.87;3.55;;;;;;;14.41;100.00;97875.39;1833469;77;20956;-56
2022/10/01 09:40:18;;;;;;;4.00;2.55;;;;;;;14.39;100.00;97876.23;1841318;77;21388;-57
2022/10/01 09:42:46;;;;;;;5.17;3.20;;;;;;;14.38;100.00;97866.58;1835175;77;20869;-56
2022/10/01 09:45:15;;;;;;;6.20;3.62;;;;;;;14.39;100.00;97866.80;1841496;77;21506;-56
2022/10/01 09:47:45;;;;;;;5.62;3.70;;;;;;;14.44;100.00;97865.88;1835012;77;21051;-57
2022/10/01 09:50:15;;;;;;;6.28;5.17;;;;;;;14.49;100.00;97859.75;1828450;78;20916;-57
2022/10/01 09:52:42;;;;;;;7.33;6.15;;;;;;;14.55;100.00;97845.02;1837573;77;21483;-58
2022/10/01 09:55:38;;;;;;;7.55;5.40;;;;;;;14.64;100.00;97859.27;1844795;77;21061;-57
2022/10/01 09:58:20;;;;;;;3.58;3.12;;;;;;;14.69;100.00;97858.31;1824678;77;21123;-56
2022/10/01 10:00:50;;;;;;;4.83;2.45;;;;;;;14.77;100.00;97866.37;1807052;78;21487;-57
2022/10/01 10:03:30;;;;;;;7.55;2.80;;;;;;;14.86;100.00;97862.34;1836548;77;21376;-55
2022/10/01 10:06:01;;;;;;;30.45;20.25;;;;;;;14.92;100.00;97859.69;1810324;79;21047;-56
2022/10/01 10:08:35;;;;;;;6.92;3.70;;;;;;;14.93;100.00;97860.70;1797792;79;21031;-56
2022/10/01 10:11:06;;;;;;;8.68;3.65;;;;;;;14.97;100.00;97856.83;1802376;79;20977;-57
2022/10/01 10:13:43;;;;;;;7.25;3.83;;;;;;;14.98;100.00;97853.80;1805524;79;21073;-56
2022/10/01 10:16:32;;;;;;;5.00;3.40;;;;;;;15.04;100.00;97851.18;1809448;79;20884;-56
2022/10/01 10:19:05;;;;;;;5.78;2.70;;;;;;;15.15;100.00;97845.41;1809972;78;20888;-56
2022/10/01 10:21:36;;;;;;;5.47;3.10;;;;;;;15.22;100.00;97844.36;1798096;79;20877;-56
2022/10/01 10:24:06;;;;;;;4.35;2.47;;;;;;;15.26;100.00;97842.62;1788555;79;21063;-55
2022/10/01 10:26:42;;;;;;;6.15;2.45;;;;;;;15.28;100.00;97846.58;1801056;79;21117;-56
2022/10/01 10:29:08;;;;;;;4.50;2.50;;;;;;;15.30;100.00;97851.09;1806571;78;20986;-55
2022/10/01 10:31:44;;;;;;;7.65;4.85;;;;;;;15.33;100.00;97845.60;1771439;80;20968;-55
2022/10/01 10:34:17;;;;;;;5.87;2.83;;;;;;;15.35;100.00;97848.77;1758449;80;20895;-55
2022/10/01 10:36:44;;;;;;;8.03;4.90;;;;;;;15.38;100.00;97845.42;1758174;80;20907;-55
2022/10/01 10:39:22;;;;;;;5.85;2.60;;;;;;;15.46;100.00;97848.66;1739383;82;21125;-55
2022/10/01 10:41:49;;;;;;;5.30;2.95;;;;;;;15.52;100.00;97844.67;1752979;80;20893;-56
2022/10/01 10:44:20;;;;;;;5.92;2.40;;;;;;;15.58;100.00;97842.81;1757425;80;20894;-56
2022/10/01 10:46:45;;;;;;;5.25;2.20;;;;;;;15.64;100.00;97836.09;1810505;79;20976;-55
2022/10/01 10:49:30;;;;;;;6.25;2.87;;;;;;;15.70;100.00;97831.31;1802315;79;20979;-56
2022/10/01 10:51:59;;;;;;;5.03;2.55;;;;;;;15.73;100.00;97819.28;1815850;79;21177;-55
2022/10/01 10:54:39;;;;;;;3.58;2.25;;;;;;;15.78;100.00;97820.23;1817713;79;20844;-56
2022/10/01 10:57:27;;;;;;;5.15;2.40;;;;;;;15.78;100.00;97810.20;1809121;78;20939;-56
2022/10/01 11:00:00;;;;;;;10.55;3.05;;;;;;;15.79;100.00;97809.64;1799842;79;21446;-56
2022/10/01 11:02:29;;;;;;;4.58;2.72;;;;;;;15.82;100.00;97804.94;1771468;80;20920;-56
2022/10/01 11:05:01;;;;;;;9.45;5.47;;;;;;;15.79;100.00;97794.23;1761903;81;21211;-56
2022/10/01 11:07:27;;;;;;;9.53;3.87;;;;;;;15.82;100.00;97791.44;1765120;80;20905;-56
2022/10/01 11:10:35;;;;;;;6.08;2.95;;;;;;;15.84;100.00;97788.64;1771447;80;20955;-56
2022/10/01 11:13:39;;;;;;;9.78;2.52;;;;;;;15.86;100.00;97778.30;1767466;81;21062;-55
2022/10/01 11:16:23;;;;;;;6.67;2.70;;;;;;;15.89;100.00;97789.01;1770839;81;20920;-56
2022/10/01 11:19:22;;;;;;;6.22;3.67;;;;;;;15.94;100.00;97803.11;1730470;80;21178;-55
2022/10/01 11:22:32;;;;;;;5.60;3.00;;;;;;;16.00;100.00;97793.69;1762672;81;20865;-55
2022/10/01 11:25:29;;;;;;;4.80;2.33;;;;;;;16.02;100.00;97794.14;1767550;81;21002;-56
2022/10/01 11:28:26;;;;;;;8.30;3.40;;;;;;;16.03;100.00;97788.98;1763447;80;20936;-56
2022/10/01 11:31:07;;;;;;;7.55;4.53;;;;;;;16.02;100.00;97790.09;1762428;80;20911;-56
2022/10/01 11:34:10;;;;;;;15.20;10.68;;;;;;;16.02;100.00;97791.99;1762555;80;21238;-56
2022/10/01 11:37:09;;;;;;;78.72;54.10;;;;;;;15.95;100.00;97781.72;1761609;81;20905;-56
2022/10/01 11:39:36;;;;;;;61.50;44.27;;;;;;;15.92;100.00;97784.30;1753165;80;21189;-57
2022/10/01 11:42:11;;;;;;;109.80;86.10;;;;;;;15.89;100.00;97773.59;1771169;80;20975;-56
2022/10/01 11:44:46;;;;;;;50.75;32.50;;;;;;;15.90;100.00;97766.30;1764582;81;20896;-56
2022/10/01 11:47:24;;;;;;;15.95;8.20;;;;;;;15.90;100.00;97767.64;1769727;80;21140;-57
2022/10/01 11:50:01;;;;;;;77.53;50.05;;;;;;;15.89;100.00;97766.84;1768080;80;21439;-57
2022/10/01 11:52:40;;;;;;;32.28;25.68;;;;;;;15.91;100.00;97770.00;1770742;80;20924;-55
2022/10/01 12:01:30;;;;;;;15.03;10.63;;;;;;;16.01;100.00;97763.41;1762742;81;21115;-57
2022/10/01 12:04:18;;;;;;;30.70;26.20;;;;;;;16.00;100.00;97763.97;1762468;81;20916;-56
2022/10/01 12:07:10;;;;;;;10.48;6.12;;;;;;;16.02;100.00;97757.67;1809555;79;20883;-55
2022/10/01 12:10:17;;;;;;;9.35;6.37;;;;;;;16.05;100.00;97763.77;1796708;78;20925;-56
2022/10/01 12:13:03;;;;;;;7.87;4.87;;;;;;;16.05;100.00;97751.61;1800193;79;20840;-55
2022/10/01 12:16:13;;;;;;;6.40;3.42;;;;;;;16.05;100.00;97756.22;1815349;79;21823;-58
2022/10/01 12:18:48;;;;;;;8.88;3.98;;;;;;;16.02;100.00;97755.52;1769743;81;20956;-57
2022/10/01 12:21:25;;;;;;;5.37;2.90;;;;;;;15.96;100.00;97751.45;1758853;80;20984;-56
2022/10/01 12:24:06;;;;;;;7.92;3.92;;;;;;;15.91;100.00;97748.40;1813407;79;20990;-55
2022/10/01 12:54:14;;;;;;;7.65;4.53;;;;;;;15.90;100.00;97735.23;1805648;78;20936;-56